sensor_id;sensor_type;location;lat;lon;timestamp;P1;durP1;ratioP1;P2;durP2;ratioP2
47129;SDS011;69689;48.122;11.542;2024-03-22T06:03:13;14.68;;;9.40;;
47129;SDS011;69689;48.122;11.542;2024-03-22T06:05:39;12.00;;;7.00;;
47129;SDS011;69689;48.122;11.542;2024-03-22T06:08:05;14.32;;;9.43;;
47129;SDS011;69689;48.122;11.542;2024-03-22T06:10:31;13.55;;;8.25;;
47129;SDS011;69689;48.122;11.542;2024-03-22T06:12:57;15.48;;;8.88;;
47129;SDS011;69689;48.122;11.542;2024-03-22T06:15:22;14.23;;;8.85;;
47129;SDS011;69689;48.122;11.542;2024-03-22T06:17:47;13.65;;;8.38;;
47129;SDS011;69689;48.122;11.542;2024-03-22T06:20:13;14.55;;;8.07;;
47129;SDS011;69689;48.122;11.542;2024-03-22T06:22:39;10.75;;;6.65;;
47129;SDS011;69689;48.122;11.542;2024-03-22T06:25:04;16.38;;;10.07;;
47129;SDS011;69689;48.122;11.542;2024-03-22T06:27:30;13.30;;;7.45;;
47129;SDS011;69689;48.122;11.542;2024-03-22T06:29:55;11.02;;;5.65;;
47129;SDS011;69689;48.122;11.542;2024-03-22T06:32:20;12.93;;;8.63;;
47129;SDS011;69689;48.122;11.542;2024-03-22T06:34:45;9.25;;;6.32;;
47129;SDS011;69689;48.122;11.542;2024-03-22T06:37:11;13.65;;;7.00;;
47129;SDS011;69689;48.122;11.542;2024-03-22T06:39:36;10.52;;;5.85;;
47129;SDS011;69689;48.122;11.542;2024-03-22T06:42:01;12.88;;;7.53;;
47129;SDS011;69689;48.122;11.542;2024-03-22T06:44:27;13.00;;;7.60;;
47129;SDS011;69689;48.122;11.542;2024-03-22T06:46:52;13.65;;;7.40;;
47129;SDS011;69689;48.122;11.542;2024-03-22T06:49:18;11.95;;;8.32;;
47129;SDS011;69689;48.122;11.542;2024-03-22T06:51:43;15.82;;;8.30;;
47129;SDS011;69689;48.122;11.542;2024-03-22T06:54:09;11.07;;;6.70;;
47129;SDS011;69689;48.122;11.542;2024-03-22T06:56:34;11.48;;;7.80;;
47129;SDS011;69689;48.122;11.542;2024-03-22T06:58:59;11.07;;;7.63;;
47129;SDS011;69689;48.122;11.542;2024-03-22T07:01:25;10.52;;;5.63;;
47129;SDS011;69689;48.122;11.542;2024-03-22T07:03:50;11.65;;;7.63;;
47129;SDS011;69689;48.122;11.542;2024-03-22T07:06:15;11.40;;;7.68;;
47129;SDS011;69689;48.122;11.542;2024-03-22T07:08:41;10.68;;;7.32;;
47129;SDS011;69689;48.122;11.542;2024-03-22T07:11:06;14.00;;;7.53;;
47129;SDS011;69689;48.122;11.542;2024-03-22T07:13:32;12.27;;;8.30;;
47129;SDS011;69689;48.122;11.542;2024-03-22T07:15:57;12.45;;;7.85;;
47129;SDS011;69689;48.122;11.542;2024-03-22T07:18:23;10.57;;;6.55;;
47129;SDS011;69689;48.122;11.542;2024-03-22T07:20:48;12.98;;;7.65;;
47129;SDS011;69689;48.122;11.542;2024-03-22T07:23:14;9.45;;;6.28;;
47129;SDS011;69689;48.122;11.542;2024-03-22T07:25:39;10.05;;;6.80;;
47129;SDS011;69689;48.122;11.542;2024-03-22T07:28:07;10.77;;;6.28;;
47129;SDS011;69689;48.122;11.542;2024-03-22T07:30:32;13.30;;;7.90;;
47129;SDS011;69689;48.122;11.542;2024-03-22T07:32:58;7.07;;;4.50;;
47129;SDS011;69689;48.122;11.542;2024-03-22T07:35:23;12.13;;;6.00;;
47129;SDS011;69689;48.122;11.542;2024-03-22T07:37:50;8.18;;;4.78;;
47129;SDS011;69689;48.122;11.542;2024-03-22T07:40:15;9.35;;;5.35;;
47129;SDS011;69689;48.122;11.542;2024-03-22T07:42:40;9.90;;;5.85;;
47129;SDS011;69689;48.122;11.542;2024-03-22T07:45:06;11.30;;;6.75;;
47129;SDS011;69689;48.122;11.542;2024-03-22T07:47:31;10.10;;;6.43;;
47129;SDS011;69689;48.122;11.542;2024-03-22T07:49:57;11.38;;;6.85;;
47129;SDS011;69689;48.122;11.542;2024-03-22T07:52:22;10.10;;;6.28;;
47129;SDS011;69689;48.122;11.542;2024-03-22T07:54:49;11.00;;;6.47;;
47129;SDS011;69689;48.122;11.542;2024-03-22T07:57:14;10.25;;;6.53;;
47129;SDS011;69689;48.122;11.542;2024-03-22T07:59:40;8.15;;;5.97;;
47129;SDS011;69689;48.122;11.542;2024-03-22T08:02:05;11.35;;;7.03;;
47129;SDS011;69689;48.122;11.542;2024-03-22T08:04:30;9.23;;;6.07;;
47129;SDS011;69689;48.122;11.542;2024-03-22T08:06:56;9.73;;;6.05;;
47129;SDS011;69689;48.122;11.542;2024-03-22T08:09:22;7.05;;;5.10;;
47129;SDS011;69689;48.122;11.542;2024-03-22T08:11:48;8.52;;;5.10;;
47129;SDS011;69689;48.122;11.542;2024-03-22T08:14:13;7.28;;;5.22;;
47129;SDS011;69689;48.122;11.542;2024-03-22T08:16:39;6.10;;;4.45;;
47129;SDS011;69689;48.122;11.542;2024-03-22T08:19:04;9.23;;;5.90;;
47129;SDS011;69689;48.122;11.542;2024-03-22T08:21:29;9.15;;;5.75;;
47129;SDS011;69689;48.122;11.542;2024-03-22T08:23:55;8.68;;;5.60;;
47129;SDS011;69689;48.122;11.542;2024-03-22T08:26:20;9.45;;;5.30;;
47129;SDS011;69689;48.122;11.542;2024-03-22T08:28:46;8.05;;;5.63;;
47129;SDS011;69689;48.122;11.542;2024-03-22T08:31:12;8.32;;;4.63;;
47129;SDS011;69689;48.122;11.542;2024-03-22T08:33:38;6.32;;;4.25;;
47129;SDS011;69689;48.122;11.542;2024-03-22T08:36:03;7.22;;;4.70;;
47129;SDS011;69689;48.122;11.542;2024-03-22T08:38:29;6.80;;;4.70;;
47129;SDS011;69689;48.122;11.542;2024-03-22T08:40:54;8.02;;;4.60;;
47129;SDS011;69689;48.122;11.542;2024-03-22T08:43:20;8.82;;;4.22;;
47129;SDS011;69689;48.122;11.542;2024-03-22T08:45:47;6.78;;;4.40;;
47129;SDS011;69689;48.122;11.542;2024-03-22T08:48:13;6.28;;;4.30;;
47129;SDS011;69689;48.122;11.542;2024-03-22T08:50:38;7.93;;;3.35;;
47129;SDS011;69689;48.122;11.542;2024-03-22T08:53:03;8.23;;;4.65;;
47129;SDS011;69689;48.122;11.542;2024-03-22T08:55:29;7.22;;;4.28;;
47129;SDS011;69689;48.122;11.542;2024-03-22T08:57:55;5.05;;;3.42;;
47129;SDS011;69689;48.122;11.542;2024-03-22T09:00:20;9.43;;;6.25;;
47129;SDS011;69689;48.122;11.542;2024-03-22T09:02:46;6.93;;;4.15;;
47129;SDS011;69689;48.122;11.542;2024-03-22T09:05:12;6.93;;;4.30;;
47129;SDS011;69689;48.122;11.542;2024-03-22T09:07:37;8.00;;;4.32;;
47129;SDS011;69689;48.122;11.542;2024-03-22T09:10:03;6.82;;;4.68;;
47129;SDS011;69689;48.122;11.542;2024-03-22T09:12:28;9.50;;;4.43;;
47129;SDS011;69689;48.122;11.542;2024-03-22T09:14:53;5.75;;;4.25;;
47129;SDS011;69689;48.122;11.542;2024-03-22T09:17:19;7.93;;;4.90;;
47129;SDS011;69689;48.122;11.542;2024-03-22T09:19:44;5.85;;;3.70;;
47129;SDS011;69689;48.122;11.542;2024-03-22T09:22:10;5.13;;;3.95;;
47129;SDS011;69689;48.122;11.542;2024-03-22T09:24:35;4.70;;;3.72;;
47129;SDS011;69689;48.122;11.542;2024-03-22T09:27:00;4.43;;;3.22;;
47129;SDS011;69689;48.122;11.542;2024-03-22T09:29:26;5.53;;;3.80;;
47129;SDS011;69689;48.122;11.542;2024-03-22T09:31:51;5.47;;;3.00;;
47129;SDS011;69689;48.122;11.542;2024-03-22T09:34:16;5.05;;;3.42;;
47129;SDS011;69689;48.122;11.542;2024-03-22T09:36:42;7.25;;;3.60;;
47129;SDS011;69689;48.122;11.542;2024-03-22T09:39:07;5.65;;;3.00;;
47129;SDS011;69689;48.122;11.542;2024-03-22T09:41:33;5.43;;;2.78;;
47129;SDS011;69689;48.122;11.542;2024-03-22T09:44:10;5.20;;;3.15;;
47129;SDS011;69689;48.122;11.542;2024-03-22T09:46:38;5.15;;;3.00;;
47129;SDS011;69689;48.122;11.542;2024-03-22T09:49:04;6.35;;;2.95;;
47129;SDS011;69689;48.122;11.542;2024-03-22T09:51:30;5.40;;;3.28;;
47129;SDS011;69689;48.122;11.542;2024-03-22T09:53:56;6.35;;;3.17;;
47129;SDS011;69689;48.122;11.542;2024-03-22T09:56:21;8.07;;;3.33;;
47129;SDS011;69689;48.122;11.542;2024-03-22T09:58:49;4.03;;;3.28;;
47129;SDS011;69689;48.122;11.542;2024-03-22T10:01:14;5.90;;;3.70;;
47129;SDS011;69689;48.122;11.542;2024-03-22T10:03:40;10.35;;;3.33;;
47129;SDS011;69689;48.122;11.542;2024-03-22T10:06:06;5.55;;;3.20;;
47129;SDS011;69689;48.122;11.542;2024-03-22T10:08:31;6.43;;;3.35;;
47129;SDS011;69689;48.122;11.542;2024-03-22T10:11:01;4.63;;;3.25;;
47129;SDS011;69689;48.122;11.542;2024-03-22T10:13:26;6.55;;;3.85;;
47129;SDS011;69689;48.122;11.542;2024-03-22T10:15:52;5.82;;;3.65;;
47129;SDS011;69689;48.122;11.542;2024-03-22T10:18:17;7.32;;;4.28;;
47129;SDS011;69689;48.122;11.542;2024-03-22T10:20:43;4.72;;;3.30;;
47129;SDS011;69689;48.122;11.542;2024-03-22T10:23:08;8.02;;;3.58;;
47129;SDS011;69689;48.122;11.542;2024-03-22T10:25:34;5.47;;;3.58;;
47129;SDS011;69689;48.122;11.542;2024-03-22T10:27:59;6.65;;;3.80;;
47129;SDS011;69689;48.122;11.542;2024-03-22T10:30:25;5.72;;;3.22;;
47129;SDS011;69689;48.122;11.542;2024-03-22T10:32:50;4.25;;;3.22;;
47129;SDS011;69689;48.122;11.542;2024-03-22T10:35:16;5.50;;;3.45;;
47129;SDS011;69689;48.122;11.542;2024-03-22T10:37:42;4.13;;;3.22;;
47129;SDS011;69689;48.122;11.542;2024-03-22T10:40:08;4.32;;;3.05;;
47129;SDS011;69689;48.122;11.542;2024-03-22T10:42:34;4.38;;;2.55;;
47129;SDS011;69689;48.122;11.542;2024-03-22T10:45:06;5.25;;;2.80;;
47129;SDS011;69689;48.122;11.542;2024-03-22T10:47:33;3.95;;;2.90;;
47129;SDS011;69689;48.122;11.542;2024-03-22T10:50:03;4.15;;;3.25;;
47129;SDS011;69689;48.122;11.542;2024-03-22T10:52:56;4.70;;;3.15;;
47129;SDS011;69689;48.122;11.542;2024-03-22T10:55:23;4.30;;;3.40;;
47129;SDS011;69689;48.122;11.542;2024-03-22T10:57:57;4.97;;;3.10;;
47129;SDS011;69689;48.122;11.542;2024-03-22T11:00:29;5.30;;;3.30;;
47129;SDS011;69689;48.122;11.542;2024-03-22T11:03:01;6.55;;;3.22;;
47129;SDS011;69689;48.122;11.542;2024-03-22T11:05:27;7.22;;;3.20;;
47129;SDS011;69689;48.122;11.542;2024-03-22T11:07:59;4.15;;;3.47;;
47129;SDS011;69689;48.122;11.542;2024-03-22T11:10:29;5.72;;;3.22;;
47129;SDS011;69689;48.122;11.542;2024-03-22T11:12:56;4.78;;;2.80;;
47129;SDS011;69689;48.122;11.542;2024-03-22T11:15:26;5.20;;;3.65;;
47129;SDS011;69689;48.122;11.542;2024-03-22T11:17:53;3.88;;;2.85;;
47129;SDS011;69689;48.122;11.542;2024-03-22T11:20:18;4.30;;;2.93;;
47129;SDS011;69689;48.122;11.542;2024-03-22T11:22:44;4.53;;;2.95;;
47129;SDS011;69689;48.122;11.542;2024-03-22T11:25:09;6.07;;;3.40;;
47129;SDS011;69689;48.122;11.542;2024-03-22T11:27:34;4.82;;;3.25;;
47129;SDS011;69689;48.122;11.542;2024-03-22T11:30:00;3.97;;;3.05;;
47129;SDS011;69689;48.122;11.542;2024-03-22T11:32:25;5.13;;;3.92;;
47129;SDS011;69689;48.122;11.542;2024-03-22T11:34:51;4.47;;;3.22;;
47129;SDS011;69689;48.122;11.542;2024-03-22T11:37:16;6.32;;;3.28;;
47129;SDS011;69689;48.122;11.542;2024-03-22T11:39:41;5.30;;;3.33;;
47129;SDS011;69689;48.122;11.542;2024-03-22T11:42:07;5.45;;;3.22;;
47129;SDS011;69689;48.122;11.542;2024-03-22T11:44:34;5.65;;;3.17;;
47129;SDS011;69689;48.122;11.542;2024-03-22T11:47:01;5.65;;;3.05;;
47129;SDS011;69689;48.122;11.542;2024-03-22T11:49:28;5.55;;;3.42;;
47129;SDS011;69689;48.122;11.542;2024-03-22T11:51:53;5.82;;;3.00;;
47129;SDS011;69689;48.122;11.542;2024-03-22T11:54:19;4.33;;;3.27;;
47129;SDS011;69689;48.122;11.542;2024-03-22T11:56:45;6.25;;;3.60;;
47129;SDS011;69689;48.122;11.542;2024-03-22T11:59:10;4.65;;;3.00;;
47129;SDS011;69689;48.122;11.542;2024-03-22T12:01:38;7.72;;;3.45;;
47129;SDS011;69689;48.122;11.542;2024-03-22T12:04:14;6.47;;;3.42;;
47129;SDS011;69689;48.122;11.542;2024-03-22T12:06:43;5.53;;;3.45;;
47129;SDS011;69689;48.122;11.542;2024-03-22T12:09:09;4.35;;;3.17;;
47129;SDS011;69689;48.122;11.542;2024-03-22T12:11:37;4.68;;;2.83;;
47129;SDS011;69689;48.122;11.542;2024-03-22T12:14:02;4.30;;;3.40;;
47129;SDS011;69689;48.122;11.542;2024-03-22T12:16:27;4.97;;;3.33;;
47129;SDS011;69689;48.122;11.542;2024-03-22T12:18:53;5.10;;;2.90;;
47129;SDS011;69689;48.122;11.542;2024-03-22T12:21:18;5.18;;;3.90;;
47129;SDS011;69689;48.122;11.542;2024-03-22T12:23:43;6.88;;;3.60;;
47129;SDS011;69689;48.122;11.542;2024-03-22T12:26:09;4.43;;;3.47;;
47129;SDS011;69689;48.122;11.542;2024-03-22T12:28:34;4.57;;;3.72;;
47129;SDS011;69689;48.122;11.542;2024-03-22T12:30:59;6.85;;;3.58;;
47129;SDS011;69689;48.122;11.542;2024-03-22T12:33:25;5.68;;;3.50;;
47129;SDS011;69689;48.122;11.542;2024-03-22T12:35:51;6.45;;;4.85;;
47129;SDS011;69689;48.122;11.542;2024-03-22T12:38:18;7.75;;;4.13;;
47129;SDS011;69689;48.122;11.542;2024-03-22T12:40:43;7.90;;;3.38;;
47129;SDS011;69689;48.122;11.542;2024-03-22T12:43:09;8.05;;;3.35;;
47129;SDS011;69689;48.122;11.542;2024-03-22T12:45:36;5.80;;;3.45;;
47129;SDS011;69689;48.122;11.542;2024-03-22T12:48:01;4.97;;;3.08;;
47129;SDS011;69689;48.122;11.542;2024-03-22T12:50:26;6.60;;;3.53;;
47129;SDS011;69689;48.122;11.542;2024-03-22T12:52:52;4.97;;;3.33;;
47129;SDS011;69689;48.122;11.542;2024-03-22T12:55:17;4.68;;;3.42;;
47129;SDS011;69689;48.122;11.542;2024-03-22T12:57:43;6.55;;;2.97;;
47129;SDS011;69689;48.122;11.542;2024-03-22T13:00:08;10.98;;;3.72;;
47129;SDS011;69689;48.122;11.542;2024-03-22T13:02:40;4.65;;;2.90;;
47129;SDS011;69689;48.122;11.542;2024-03-22T13:05:06;4.30;;;2.58;;
47129;SDS011;69689;48.122;11.542;2024-03-22T13:07:32;3.88;;;2.67;;
47129;SDS011;69689;48.122;11.542;2024-03-22T13:09:57;5.22;;;2.95;;
47129;SDS011;69689;48.122;11.542;2024-03-22T13:12:25;4.57;;;3.08;;
47129;SDS011;69689;48.122;11.542;2024-03-22T13:14:50;4.50;;;2.67;;
47129;SDS011;69689;48.122;11.542;2024-03-22T13:17:17;2.78;;;2.22;;
47129;SDS011;69689;48.122;11.542;2024-03-22T13:19:42;4.90;;;2.60;;
47129;SDS011;69689;48.122;11.542;2024-03-22T13:22:07;3.22;;;2.35;;
47129;SDS011;69689;48.122;11.542;2024-03-22T13:24:34;6.75;;;2.60;;
47129;SDS011;69689;48.122;11.542;2024-03-22T13:27:00;6.22;;;2.63;;
47129;SDS011;69689;48.122;11.542;2024-03-22T13:29:25;6.23;;;2.47;;
47129;SDS011;69689;48.122;11.542;2024-03-22T13:31:51;4.95;;;2.35;;
47129;SDS011;69689;48.122;11.542;2024-03-22T13:34:17;4.30;;;2.67;;
47129;SDS011;69689;48.122;11.542;2024-03-22T13:36:42;3.20;;;2.80;;
47129;SDS011;69689;48.122;11.542;2024-03-22T13:39:07;4.67;;;2.73;;
47129;SDS011;69689;48.122;11.542;2024-03-22T13:41:35;5.53;;;2.42;;
47129;SDS011;69689;48.122;11.542;2024-03-22T13:44:00;3.37;;;2.50;;
47129;SDS011;69689;48.122;11.542;2024-03-22T13:46:28;3.00;;;2.05;;
47129;SDS011;69689;48.122;11.542;2024-03-22T13:48:54;2.58;;;2.05;;
47129;SDS011;69689;48.122;11.542;2024-03-22T13:51:19;3.15;;;2.08;;
47129;SDS011;69689;48.122;11.542;2024-03-22T13:53:44;2.03;;;1.70;;
47129;SDS011;69689;48.122;11.542;2024-03-22T13:56:10;5.43;;;3.05;;
47129;SDS011;69689;48.122;11.542;2024-03-22T13:58:35;4.25;;;2.72;;
47129;SDS011;69689;48.122;11.542;2024-03-22T14:01:00;3.03;;;2.00;;
47129;SDS011;69689;48.122;11.542;2024-03-22T14:03:26;3.92;;;2.20;;
47129;SDS011;69689;48.122;11.542;2024-03-22T14:05:52;5.53;;;2.35;;
47129;SDS011;69689;48.122;11.542;2024-03-22T14:08:17;4.77;;;2.10;;
47129;SDS011;69689;48.122;11.542;2024-03-22T14:10:42;3.35;;;1.70;;
47129;SDS011;69689;48.122;11.542;2024-03-22T14:13:08;5.90;;;1.80;;
47129;SDS011;69689;48.122;11.542;2024-03-22T14:15:33;4.65;;;2.42;;
47129;SDS011;69689;48.122;11.542;2024-03-22T14:18:00;3.40;;;1.80;;
47129;SDS011;69689;48.122;11.542;2024-03-22T14:20:26;2.80;;;1.42;;
47129;SDS011;69689;48.122;11.542;2024-03-22T14:22:51;2.33;;;1.50;;
47129;SDS011;69689;48.122;11.542;2024-03-22T14:25:16;4.88;;;2.55;;
47129;SDS011;69689;48.122;11.542;2024-03-22T14:27:42;3.65;;;1.63;;
47129;SDS011;69689;48.122;11.542;2024-03-22T14:30:10;3.05;;;1.90;;
47129;SDS011;69689;48.122;11.542;2024-03-22T14:32:37;3.00;;;1.90;;
47129;SDS011;69689;48.122;11.542;2024-03-22T14:35:03;4.07;;;1.63;;
47129;SDS011;69689;48.122;11.542;2024-03-22T14:37:29;2.40;;;2.03;;
47129;SDS011;69689;48.122;11.542;2024-03-22T14:39:54;1.88;;;1.20;;
47129;SDS011;69689;48.122;11.542;2024-03-22T14:42:19;2.30;;;1.50;;
47129;SDS011;69689;48.122;11.542;2024-03-22T14:44:45;2.58;;;1.88;;
47129;SDS011;69689;48.122;11.542;2024-03-22T14:47:11;5.15;;;1.60;;
47129;SDS011;69689;48.122;11.542;2024-03-22T14:49:36;3.67;;;1.17;;
47129;SDS011;69689;48.122;11.542;2024-03-22T14:52:02;1.55;;;0.90;;
47129;SDS011;69689;48.122;11.542;2024-03-22T14:54:32;1.40;;;1.00;;
47129;SDS011;69689;48.122;11.542;2024-03-22T14:56:57;3.25;;;0.93;;
47129;SDS011;69689;48.122;11.542;2024-03-22T14:59:23;0.73;;;0.73;;
47129;SDS011;69689;48.122;11.542;2024-03-22T15:01:52;0.93;;;0.70;;
47129;SDS011;69689;48.122;11.542;2024-03-22T15:04:19;1.80;;;0.90;;
47129;SDS011;69689;48.122;11.542;2024-03-22T15:06:44;0.80;;;0.68;;
47129;SDS011;69689;48.122;11.542;2024-03-22T15:09:10;5.10;;;1.50;;
47129;SDS011;69689;48.122;11.542;2024-03-22T15:11:36;1.70;;;0.90;;
47129;SDS011;69689;48.122;11.542;2024-03-22T15:14:03;1.88;;;0.90;;
47129;SDS011;69689;48.122;11.542;2024-03-22T15:16:28;2.55;;;1.08;;
47129;SDS011;69689;48.122;11.542;2024-03-22T15:18:54;3.00;;;0.80;;
47129;SDS011;69689;48.122;11.542;2024-03-22T15:21:20;0.90;;;0.85;;
47129;SDS011;69689;48.122;11.542;2024-03-22T15:23:45;2.45;;;1.00;;
47129;SDS011;69689;48.122;11.542;2024-03-22T15:26:11;2.45;;;1.35;;
47129;SDS011;69689;48.122;11.542;2024-03-22T15:28:36;2.58;;;1.02;;
47129;SDS011;69689;48.122;11.542;2024-03-22T15:31:02;3.30;;;1.85;;
47129;SDS011;69689;48.122;11.542;2024-03-22T15:33:28;3.28;;;1.10;;
47129;SDS011;69689;48.122;11.542;2024-03-22T15:35:53;2.85;;;1.27;;
47129;SDS011;69689;48.122;11.542;2024-03-22T15:38:19;2.28;;;1.15;;
47129;SDS011;69689;48.122;11.542;2024-03-22T15:40:44;1.80;;;1.10;;
47129;SDS011;69689;48.122;11.542;2024-03-22T15:43:11;1.63;;;1.23;;
47129;SDS011;69689;48.122;11.542;2024-03-22T15:45:38;2.15;;;1.38;;
47129;SDS011;69689;48.122;11.542;2024-03-22T15:48:03;2.80;;;1.13;;
47129;SDS011;69689;48.122;11.542;2024-03-22T15:50:31;2.38;;;1.23;;
47129;SDS011;69689;48.122;11.542;2024-03-22T15:52:57;0.93;;;0.90;;
47129;SDS011;69689;48.122;11.542;2024-03-22T15:55:22;1.77;;;1.10;;
47129;SDS011;69689;48.122;11.542;2024-03-22T15:57:48;3.10;;;1.10;;
47129;SDS011;69689;48.122;11.542;2024-03-22T16:00:14;3.00;;;1.00;;
47129;SDS011;69689;48.122;11.542;2024-03-22T16:02:40;2.60;;;0.75;;
47129;SDS011;69689;48.122;11.542;2024-03-22T16:05:06;2.70;;;1.13;;
47129;SDS011;69689;48.122;11.542;2024-03-22T16:07:32;1.88;;;0.73;;
47129;SDS011;69689;48.122;11.542;2024-03-22T16:09:58;2.17;;;1.13;;
47129;SDS011;69689;48.122;11.542;2024-03-22T16:12:25;1.75;;;1.08;;
47129;SDS011;69689;48.122;11.542;2024-03-22T16:14:50;1.02;;;0.70;;
47129;SDS011;69689;48.122;11.542;2024-03-22T16:17:16;0.82;;;0.60;;
47129;SDS011;69689;48.122;11.542;2024-03-22T16:19:42;1.85;;;0.90;;
47129;SDS011;69689;48.122;11.542;2024-03-22T16:22:07;2.17;;;1.10;;
47129;SDS011;69689;48.122;11.542;2024-03-22T16:24:32;2.22;;;1.05;;
47129;SDS011;69689;48.122;11.542;2024-03-22T16:26:58;1.73;;;1.00;;
47129;SDS011;69689;48.122;11.542;2024-03-22T16:29:23;5.00;;;0.95;;
47129;SDS011;69689;48.122;11.542;2024-03-22T16:31:49;2.45;;;1.10;;
47129;SDS011;69689;48.122;11.542;2024-03-22T16:34:16;3.40;;;1.13;;
47129;SDS011;69689;48.122;11.542;2024-03-22T16:36:41;1.52;;;0.82;;
47129;SDS011;69689;48.122;11.542;2024-03-22T16:39:07;2.60;;;1.30;;
47129;SDS011;69689;48.122;11.542;2024-03-22T16:41:33;3.85;;;1.23;;
47129;SDS011;69689;48.122;11.542;2024-03-22T16:43:58;4.30;;;1.00;;
47129;SDS011;69689;48.122;11.542;2024-03-22T16:46:23;1.23;;;0.80;;
47129;SDS011;69689;48.122;11.542;2024-03-22T16:48:49;4.60;;;1.20;;
47129;SDS011;69689;48.122;11.542;2024-03-22T16:51:15;1.40;;;0.75;;
47129;SDS011;69689;48.122;11.542;2024-03-22T16:53:40;2.58;;;0.80;;
47129;SDS011;69689;48.122;11.542;2024-03-22T16:56:06;1.73;;;0.80;;
47129;SDS011;69689;48.122;11.542;2024-03-22T16:58:31;1.85;;;0.88;;
47129;SDS011;69689;48.122;11.542;2024-03-22T17:01:01;3.45;;;1.10;;
47129;SDS011;69689;48.122;11.542;2024-03-22T17:03:30;1.58;;;0.90;;
47129;SDS011;69689;48.122;11.542;2024-03-22T17:05:55;2.65;;;0.90;;
47129;SDS011;69689;48.122;11.542;2024-03-22T17:08:21;2.33;;;1.20;;
47129;SDS011;69689;48.122;11.542;2024-03-22T17:10:46;2.30;;;1.33;;
47129;SDS011;69689;48.122;11.542;2024-03-22T17:13:20;2.63;;;0.93;;
47129;SDS011;69689;48.122;11.542;2024-03-22T17:15:46;2.60;;;1.30;;
47129;SDS011;69689;48.122;11.542;2024-03-22T17:18:11;3.13;;;1.60;;
47129;SDS011;69689;48.122;11.542;2024-03-22T17:20:37;2.83;;;1.35;;
47129;SDS011;69689;48.122;11.542;2024-03-22T17:23:02;5.32;;;1.17;;
47129;SDS011;69689;48.122;11.542;2024-03-22T17:25:28;3.97;;;1.00;;
47129;SDS011;69689;48.122;11.542;2024-03-22T17:27:53;2.75;;;1.20;;
47129;SDS011;69689;48.122;11.542;2024-03-22T17:30:18;4.15;;;1.40;;
47129;SDS011;69689;48.122;11.542;2024-03-22T17:32:44;2.65;;;1.05;;
47129;SDS011;69689;48.122;11.542;2024-03-22T17:35:09;1.55;;;1.00;;
47129;SDS011;69689;48.122;11.542;2024-03-22T17:37:34;2.53;;;1.23;;
47129;SDS011;69689;48.122;11.542;2024-03-22T17:40:01;3.58;;;1.33;;
47129;SDS011;69689;48.122;11.542;2024-03-22T17:42:26;2.40;;;1.30;;
47129;SDS011;69689;48.122;11.542;2024-03-22T17:44:52;3.85;;;1.40;;
47129;SDS011;69689;48.122;11.542;2024-03-22T17:47:17;3.65;;;1.48;;
47129;SDS011;69689;48.122;11.542;2024-03-22T17:49:45;3.17;;;1.50;;
47129;SDS011;69689;48.122;11.542;2024-03-22T17:52:11;3.55;;;1.50;;
47129;SDS011;69689;48.122;11.542;2024-03-22T17:54:36;6.70;;;1.80;;
47129;SDS011;69689;48.122;11.542;2024-03-22T17:57:01;11.07;;;4.53;;
47129;SDS011;69689;48.122;11.542;2024-03-22T17:59:27;4.93;;;1.90;;
47129;SDS011;69689;48.122;11.542;2024-03-22T18:01:53;3.53;;;1.88;;
47129;SDS011;69689;48.122;11.542;2024-03-22T18:04:19;5.07;;;2.45;;
47129;SDS011;69689;48.122;11.542;2024-03-22T18:06:45;4.70;;;2.05;;
47129;SDS011;69689;48.122;11.542;2024-03-22T18:09:10;3.88;;;1.70;;
47129;SDS011;69689;48.122;11.542;2024-03-22T18:11:38;4.68;;;1.90;;
47129;SDS011;69689;48.122;11.542;2024-03-22T18:14:03;4.97;;;2.20;;
47129;SDS011;69689;48.122;11.542;2024-03-22T18:16:29;4.80;;;2.35;;
47129;SDS011;69689;48.122;11.542;2024-03-22T18:18:56;4.18;;;1.90;;
47129;SDS011;69689;48.122;11.542;2024-03-22T18:21:23;3.38;;;1.42;;
47129;SDS011;69689;48.122;11.542;2024-03-22T18:23:48;4.53;;;2.15;;
47129;SDS011;69689;48.122;11.542;2024-03-22T18:26:14;4.72;;;2.20;;
47129;SDS011;69689;48.122;11.542;2024-03-22T18:28:39;5.40;;;2.25;;
47129;SDS011;69689;48.122;11.542;2024-03-22T18:31:05;3.65;;;1.98;;
47129;SDS011;69689;48.122;11.542;2024-03-22T18:33:30;3.67;;;1.58;;
47129;SDS011;69689;48.122;11.542;2024-03-22T18:36:00;5.03;;;2.63;;
47129;SDS011;69689;48.122;11.542;2024-03-22T18:38:27;4.28;;;2.20;;
47129;SDS011;69689;48.122;11.542;2024-03-22T18:40:52;7.10;;;2.67;;
47129;SDS011;69689;48.122;11.542;2024-03-22T18:43:17;7.53;;;2.97;;
47129;SDS011;69689;48.122;11.542;2024-03-22T18:45:43;6.40;;;2.85;;
47129;SDS011;69689;48.122;11.542;2024-03-22T18:48:08;8.88;;;3.65;;
47129;SDS011;69689;48.122;11.542;2024-03-22T18:50:33;8.60;;;3.85;;
47129;SDS011;69689;48.122;11.542;2024-03-22T18:53:00;7.43;;;3.80;;
47129;SDS011;69689;48.122;11.542;2024-03-22T18:55:25;9.25;;;4.00;;
47129;SDS011;69689;48.122;11.542;2024-03-22T18:57:50;6.90;;;3.75;;
47129;SDS011;69689;48.122;11.542;2024-03-22T19:00:16;9.75;;;3.78;;
47129;SDS011;69689;48.122;11.542;2024-03-22T19:02:42;6.30;;;3.28;;
47129;SDS011;69689;48.122;11.542;2024-03-22T19:05:07;8.25;;;3.85;;
47129;SDS011;69689;48.122;11.542;2024-03-22T19:07:33;9.20;;;4.22;;
47129;SDS011;69689;48.122;11.542;2024-03-22T19:09:58;12.52;;;4.05;;
47129;SDS011;69689;48.122;11.542;2024-03-22T19:12:24;5.50;;;3.25;;
47129;SDS011;69689;48.122;11.542;2024-03-22T19:14:49;6.30;;;3.17;;
47129;SDS011;69689;48.122;11.542;2024-03-22T19:17:14;7.85;;;3.47;;
47129;SDS011;69689;48.122;11.542;2024-03-22T19:19:40;10.90;;;3.65;;
47129;SDS011;69689;48.122;11.542;2024-03-22T19:22:05;4.68;;;2.72;;
47129;SDS011;69689;48.122;11.542;2024-03-22T19:24:31;6.50;;;3.60;;
47129;SDS011;69689;48.122;11.542;2024-03-22T19:26:56;7.00;;;3.38;;
47129;SDS011;69689;48.122;11.542;2024-03-22T19:29:22;10.77;;;3.40;;
47129;SDS011;69689;48.122;11.542;2024-03-22T19:31:47;6.25;;;2.90;;
47129;SDS011;69689;48.122;11.542;2024-03-22T19:34:13;9.68;;;4.00;;
47129;SDS011;69689;48.122;11.542;2024-03-22T19:36:38;7.22;;;3.75;;
47129;SDS011;69689;48.122;11.542;2024-03-22T19:39:04;8.07;;;3.72;;
47129;SDS011;69689;48.122;11.542;2024-03-22T19:41:34;16.13;;;4.13;;
47129;SDS011;69689;48.122;11.542;2024-03-22T19:44:00;6.55;;;3.60;;
47129;SDS011;69689;48.122;11.542;2024-03-22T19:46:26;6.43;;;3.92;;
47129;SDS011;69689;48.122;11.542;2024-03-22T19:48:51;8.23;;;3.78;;
47129;SDS011;69689;48.122;11.542;2024-03-22T19:51:17;5.68;;;3.63;;
47129;SDS011;69689;48.122;11.542;2024-03-22T19:53:42;6.82;;;3.72;;
47129;SDS011;69689;48.122;11.542;2024-03-22T19:56:07;10.13;;;3.47;;
47129;SDS011;69689;48.122;11.542;2024-03-22T19:58:33;6.53;;;4.05;;
47129;SDS011;69689;48.122;11.542;2024-03-22T20:00:58;7.03;;;3.65;;
